Detalii statie SOMALEX GHIMPATI [0000198E]

Toti senzorii

Date Temperatura solului [C]Precipitatii [mm]Voltaj baterie [mV]Leaf Wetness [Min]HC Air temperature [C]HC Relative humidity [%]Punctul de roua [C]
medieminmaxsumaultimatimpmedieminmaxmediemediemin
2018-02-23 13:00:00 1.7 1.7 1.7 0 7196 0.04 0.04 0.05 0 0 0
2018-02-23 13:10:00 1.7 1.7 1.8 0 7166 0.12 0.11 0.14 0 0 0
2018-02-23 13:20:00 1.9 1.8 2 0.2 7176 0.24 0.2 0.29 0 0 0
2018-02-23 13:30:00 1.9 1.9 1.9 0 7254 0.48 0.41 0.55 0 0 0
2018-02-23 13:40:00 2 2 2.1 0 7246 0.68 0.68 0.69 0 0 0
2018-02-23 13:50:00 2 2 2.1 0 7236 0.5 0.45 0.56 0 0 0
2018-02-23 14:00:00 2.1 2 2.2 0.2 7226 0.48 0.42 0.54 0 0 0
2018-02-23 14:10:00 2.3 2.3 2.3 0 7158 0.7 0.63 0.78 0 0 0
2018-02-23 14:20:00 2.3 2.3 2.4 0 7186 0.76 0.65 0.87 0 0 0
2018-02-23 14:30:00 2.4 2.4 2.4 0 7158 0.6 0.49 0.71 0 0 0
2018-02-23 14:40:00 2.4 2.4 2.4 0 7166 0.5 0.38 0.63 0 0 0
2018-02-23 14:50:00 2.5 2.5 2.5 0.2 7148 0.61 0.61 0.62 0 0 0
2018-02-23 15:00:00 2.5 2.5 2.6 0 7148 0.46 0.43 0.49 0 0 0
2018-02-23 15:10:00 2.6 2.6 2.7 0 7070 0.55 0.51 0.59 0 0 0
2018-02-23 15:20:00 2.6 2.6 2.6 0 7108 0.61 0.6 0.62 0 0 0
2018-02-23 15:30:00 2.7 2.6 2.8 0 7108 0.69 0.64 0.75 0 0 0
2018-02-23 15:40:00 2.7 2.7 2.7 0 7088 0.66 0.65 0.67 0 0 0
2018-02-23 15:50:00 2.8 2.8 2.8 0 7098 0.68 0.65 0.72 0 0 0
2018-02-23 16:00:00 2.8 2.8 2.8 0 7098 0.77 0.63 0.91 0 0 0
2018-02-23 16:10:00 2.8 2.7 2.9 0 7020 0.81 0.76 0.86 0 0 0
2018-02-23 16:20:00 2.8 2.8 2.9 0 7040 0.76 0.73 0.79 0 0 0
2018-02-23 16:30:00 2.7 2.6 2.8 0.4 7020 0.66 0.66 0.66 0 0 0
2018-02-23 16:40:00 2.8 2.8 2.9 0 7020 0.63 0.6 0.66 0 0 0
2018-02-23 16:50:00 2.9 2.9 2.9 0 7010 0.55 0.55 0.56 0 0 0
2018-02-23 17:00:00 2.9 2.9 2.9 0 7010 0.49 0.46 0.53 0 0 0
2018-02-23 17:10:00 2.8 2.8 2.8 0 6942 0.5 0.47 0.54 0 0 0
2018-02-23 17:20:00 2.8 2.8 2.9 0 6952 0.45 0.44 0.47 0 0 0
2018-02-23 17:30:00 2.8 2.8 2.9 0 6952 0.37 0.35 0.39 0 0 0
2018-02-23 17:40:00 2.8 2.8 2.9 0 6962 0.41 0.4 0.42 0 0 0
2018-02-23 17:50:00 2.7 2.7 2.8 0 6952 0.34 0.34 0.35 0 0 0
2018-02-23 18:00:00 2.7 2.6 2.8 0 6952 0.27 0.26 0.28 0 0 0
2018-02-23 18:10:00 2.6 2.6 2.7 0 6904 0.29 0.29 0.29 0 0 0
2018-02-23 18:20:00 2.7 2.6 2.8 0 6922 0.31 0.31 0.32 0 0 0
2018-02-23 18:30:00 2.7 2.7 2.8 0 6922 0.29 0.28 0.31 0 0 0
2018-02-23 18:40:00 2.7 2.6 2.8 0 6932 0.28 0.26 0.3 0 0 0
2018-02-23 18:50:00 2.6 2.6 2.7 0 6922 0.25 0.24 0.27 0 0 0
2018-02-23 19:00:00 2.6 2.6 2.7 0 6932 0.23 0.23 0.24 0 0 0
2018-02-23 19:10:00 2.5 2.4 2.6 0 6894 0.23 0.23 0.24 0 0 0
2018-02-23 19:20:00 2.5 2.5 2.6 0 6904 0.21 0.21 0.21 0 0 0
2018-02-23 19:30:00 2.5 2.5 2.5 0 6914 0.21 0.2 0.22 0 0 0
2018-02-23 19:40:00 2.4 2.4 2.5 0 6922 0.2 0.19 0.22 0 0 0
2018-02-23 19:50:00 2.5 2.5 2.5 0 6922 0.24 0.24 0.25 0 0 0
2018-02-23 20:00:00 2.3 2.3 2.4 0 6914 0.23 0.23 0.24 0 0 0
2018-02-23 20:10:00 2.4 2.4 2.4 0 6874 0.24 0.22 0.26 0 0 0
2018-02-23 20:20:00 2.3 2.3 2.4 0 6894 0.21 0.2 0.22 0 0 0
2018-02-23 20:30:00 2.3 2.2 2.4 0 6894 0.18 0.18 0.19 0 0 0
2018-02-23 20:40:00 2.3 2.2 2.4 0 6904 0.15 0.14 0.16 0 0 0
2018-02-23 20:50:00 2.4 2.4 2.4 0 6904 0.17 0.17 0.17 0 0 0